sensor_id;sensor_type;location;lat;lon;timestamp;temperature;humidity
19928;DHT22;10126;50.876;4.470;2023-06-22T00:01:13;21.60;99.90
19928;DHT22;10126;50.876;4.470;2023-06-22T00:03:13;21.70;99.90
19928;DHT22;10126;50.876;4.470;2023-06-22T00:05:14;21.50;99.90
19928;DHT22;10126;50.876;4.470;2023-06-22T00:07:15;21.30;99.90
19928;DHT22;10126;50.876;4.470;2023-06-22T00:09:15;21.20;99.90
19928;DHT22;10126;50.876;4.470;2023-06-22T00:11:16;21.10;99.90
19928;DHT22;10126;50.876;4.470;2023-06-22T00:13:17;20.90;99.90
19928;DHT22;10126;50.876;4.470;2023-06-22T00:15:18;20.90;99.90
19928;DHT22;10126;50.876;4.470;2023-06-22T00:17:19;21.00;99.90
19928;DHT22;10126;50.876;4.470;2023-06-22T00:19:19;21.00;99.90
19928;DHT22;10126;50.876;4.470;2023-06-22T00:21:21;20.90;99.90
19928;DHT22;10126;50.876;4.470;2023-06-22T00:23:22;20.70;99.90
19928;DHT22;10126;50.876;4.470;2023-06-22T00:25:24;20.80;99.90
19928;DHT22;10126;50.876;4.470;2023-06-22T00:27:24;20.60;99.90
19928;DHT22;10126;50.876;4.470;2023-06-22T00:29:25;20.60;99.90
19928;DHT22;10126;50.876;4.470;2023-06-22T00:31:26;20.60;99.90
19928;DHT22;10126;50.876;4.470;2023-06-22T00:33:26;20.50;99.90
19928;DHT22;10126;50.876;4.470;2023-06-22T00:35:28;20.50;99.90
19928;DHT22;10126;50.876;4.470;2023-06-22T00:37:29;20.50;99.90
19928;DHT22;10126;50.876;4.470;2023-06-22T00:39:30;20.50;99.90
19928;DHT22;10126;50.876;4.470;2023-06-22T00:41:33;20.60;99.90
19928;DHT22;10126;50.876;4.470;2023-06-22T00:43:35;20.80;99.90
19928;DHT22;10126;50.876;4.470;2023-06-22T00:45:36;21.10;99.90
19928;DHT22;10126;50.876;4.470;2023-06-22T00:47:37;21.10;99.90
19928;DHT22;10126;50.876;4.470;2023-06-22T00:49:38;21.10;99.90
19928;DHT22;10126;50.876;4.470;2023-06-22T00:51:39;21.10;99.90
19928;DHT22;10126;50.876;4.470;2023-06-22T00:53:45;21.00;99.90
19928;DHT22;10126;50.876;4.470;2023-06-22T00:55:47;20.90;99.90
19928;DHT22;10126;50.876;4.470;2023-06-22T00:57:52;20.90;99.90
19928;DHT22;10126;50.876;4.470;2023-06-22T00:59:56;20.90;99.90
19928;DHT22;10126;50.876;4.470;2023-06-22T01:01:57;21.10;99.90
19928;DHT22;10126;50.876;4.470;2023-06-22T01:03:57;21.40;99.90
19928;DHT22;10126;50.876;4.470;2023-06-22T01:06:02;21.60;99.90
19928;DHT22;10126;50.876;4.470;2023-06-22T01:08:16;21.80;99.90
19928;DHT22;10126;50.876;4.470;2023-06-22T01:12:44;21.90;99.90
19928;DHT22;10126;50.876;4.470;2023-06-22T01:15:02;21.70;99.90
19928;DHT22;10126;50.876;4.470;2023-06-22T01:17:08;21.60;99.90
19928;DHT22;10126;50.876;4.470;2023-06-22T01:19:20;21.50;99.90
19928;DHT22;10126;50.876;4.470;2023-06-22T01:21:26;21.40;99.90
19928;DHT22;10126;50.876;4.470;2023-06-22T01:23:51;21.60;99.90
19928;DHT22;10126;50.876;4.470;2023-06-22T01:26:28;21.70;99.90
19928;DHT22;10126;50.876;4.470;2023-06-22T01:28:52;21.50;99.90
19928;DHT22;10126;50.876;4.470;2023-06-22T01:30:53;21.30;99.90
19928;DHT22;10126;50.876;4.470;2023-06-22T01:33:05;21.30;99.90
19928;DHT22;10126;50.876;4.470;2023-06-22T01:35:07;21.20;99.90
19928;DHT22;10126;50.876;4.470;2023-06-22T01:37:08;21.20;99.90
19928;DHT22;10126;50.876;4.470;2023-06-22T01:39:09;21.50;99.90
19928;DHT22;10126;50.876;4.470;2023-06-22T01:41:12;21.60;99.90
19928;DHT22;10126;50.876;4.470;2023-06-22T01:43:13;21.50;99.90
19928;DHT22;10126;50.876;4.470;2023-06-22T01:45:14;21.60;99.90
19928;DHT22;10126;50.876;4.470;2023-06-22T01:47:16;21.70;99.90
19928;DHT22;10126;50.876;4.470;2023-06-22T01:49:18;21.60;99.90
19928;DHT22;10126;50.876;4.470;2023-06-22T01:51:19;21.30;99.90
19928;DHT22;10126;50.876;4.470;2023-06-22T01:53:24;20.90;99.90
19928;DHT22;10126;50.876;4.470;2023-06-22T01:55:24;20.70;99.90
19928;DHT22;10126;50.876;4.470;2023-06-22T01:57:25;20.70;99.90
19928;DHT22;10126;50.876;4.470;2023-06-22T01:59:35;20.90;99.90
19928;DHT22;10126;50.876;4.470;2023-06-22T02:01:44;21.00;99.90
19928;DHT22;10126;50.876;4.470;2023-06-22T02:04:14;20.90;99.90
19928;DHT22;10126;50.876;4.470;2023-06-22T02:06:41;20.60;99.90
19928;DHT22;10126;50.876;4.470;2023-06-22T02:08:57;20.50;99.90
19928;DHT22;10126;50.876;4.470;2023-06-22T02:11:00;20.40;99.90
19928;DHT22;10126;50.876;4.470;2023-06-22T02:13:06;20.40;99.90
19928;DHT22;10126;50.876;4.470;2023-06-22T02:15:07;20.40;99.90
19928;DHT22;10126;50.876;4.470;2023-06-22T02:17:09;20.50;99.90
19928;DHT22;10126;50.876;4.470;2023-06-22T02:19:10;20.40;99.90
19928;DHT22;10126;50.876;4.470;2023-06-22T02:21:11;20.20;99.90
19928;DHT22;10126;50.876;4.470;2023-06-22T02:23:11;20.20;99.90
19928;DHT22;10126;50.876;4.470;2023-06-22T02:25:12;20.10;99.90
19928;DHT22;10126;50.876;4.470;2023-06-22T02:27:13;19.90;99.90
19928;DHT22;10126;50.876;4.470;2023-06-22T02:29:13;19.70;99.90
19928;DHT22;10126;50.876;4.470;2023-06-22T02:31:14;19.50;99.90
19928;DHT22;10126;50.876;4.470;2023-06-22T02:33:14;19.40;99.90
19928;DHT22;10126;50.876;4.470;2023-06-22T02:35:15;19.30;99.90
19928;DHT22;10126;50.876;4.470;2023-06-22T02:37:16;19.30;99.90
19928;DHT22;10126;50.876;4.470;2023-06-22T02:39:21;19.40;99.90
19928;DHT22;10126;50.876;4.470;2023-06-22T02:41:22;19.60;99.90
19928;DHT22;10126;50.876;4.470;2023-06-22T02:43:23;19.80;99.90
19928;DHT22;10126;50.876;4.470;2023-06-22T02:45:24;19.80;99.90
19928;DHT22;10126;50.876;4.470;2023-06-22T02:47:25;20.00;99.90
19928;DHT22;10126;50.876;4.470;2023-06-22T02:49:26;20.00;99.90
19928;DHT22;10126;50.876;4.470;2023-06-22T02:51:27;20.00;99.90
19928;DHT22;10126;50.876;4.470;2023-06-22T02:53:27;20.10;99.90
19928;DHT22;10126;50.876;4.470;2023-06-22T02:55:28;19.90;99.90
19928;DHT22;10126;50.876;4.470;2023-06-22T02:57:34;19.70;99.90
19928;DHT22;10126;50.876;4.470;2023-06-22T02:59:36;19.70;99.90
19928;DHT22;10126;50.876;4.470;2023-06-22T03:01:41;19.80;99.90
19928;DHT22;10126;50.876;4.470;2023-06-22T03:03:41;19.90;99.90
19928;DHT22;10126;50.876;4.470;2023-06-22T03:05:42;19.90;99.90
19928;DHT22;10126;50.876;4.470;2023-06-22T03:07:43;20.00;99.90
19928;DHT22;10126;50.876;4.470;2023-06-22T03:09:44;20.00;99.90
19928;DHT22;10126;50.876;4.470;2023-06-22T03:11:45;20.10;99.90
19928;DHT22;10126;50.876;4.470;2023-06-22T03:13:45;20.10;99.90
19928;DHT22;10126;50.876;4.470;2023-06-22T03:15:46;20.10;99.90
19928;DHT22;10126;50.876;4.470;2023-06-22T03:17:55;20.10;99.90
19928;DHT22;10126;50.876;4.470;2023-06-22T03:19:55;20.20;99.90
19928;DHT22;10126;50.876;4.470;2023-06-22T03:21:56;20.20;99.90
19928;DHT22;10126;50.876;4.470;2023-06-22T03:23:57;20.10;99.90
19928;DHT22;10126;50.876;4.470;2023-06-22T03:25:58;20.00;99.90
19928;DHT22;10126;50.876;4.470;2023-06-22T03:27:58;20.00;99.90
19928;DHT22;10126;50.876;4.470;2023-06-22T03:29:59;19.80;99.90
19928;DHT22;10126;50.876;4.470;2023-06-22T03:32:00;19.70;99.90
19928;DHT22;10126;50.876;4.470;2023-06-22T03:34:00;19.70;99.90
19928;DHT22;10126;50.876;4.470;2023-06-22T03:36:01;19.60;99.90
19928;DHT22;10126;50.876;4.470;2023-06-22T03:38:02;19.50;99.90
19928;DHT22;10126;50.876;4.470;2023-06-22T03:40:02;19.40;99.90
19928;DHT22;10126;50.876;4.470;2023-06-22T03:42:06;19.30;99.90
19928;DHT22;10126;50.876;4.470;2023-06-22T03:44:07;19.20;99.90
19928;DHT22;10126;50.876;4.470;2023-06-22T03:46:12;19.30;99.90
19928;DHT22;10126;50.876;4.470;2023-06-22T03:48:13;19.40;99.90
19928;DHT22;10126;50.876;4.470;2023-06-22T03:50:14;19.50;99.90
19928;DHT22;10126;50.876;4.470;2023-06-22T03:52:15;19.70;99.90
19928;DHT22;10126;50.876;4.470;2023-06-22T03:54:15;20.00;99.90
19928;DHT22;10126;50.876;4.470;2023-06-22T03:56:16;20.10;99.90
19928;DHT22;10126;50.876;4.470;2023-06-22T03:58:21;20.20;99.90
19928;DHT22;10126;50.876;4.470;2023-06-22T04:00:22;20.20;99.90
19928;DHT22;10126;50.876;4.470;2023-06-22T04:02:23;20.30;99.90
19928;DHT22;10126;50.876;4.470;2023-06-22T04:04:24;20.20;99.90
19928;DHT22;10126;50.876;4.470;2023-06-22T04:06:24;20.10;99.90
19928;DHT22;10126;50.876;4.470;2023-06-22T04:08:25;20.10;99.90
19928;DHT22;10126;50.876;4.470;2023-06-22T04:10:25;20.10;99.90
19928;DHT22;10126;50.876;4.470;2023-06-22T04:12:26;20.30;99.90
19928;DHT22;10126;50.876;4.470;2023-06-22T04:14:27;20.00;99.90
19928;DHT22;10126;50.876;4.470;2023-06-22T04:16:27;20.00;99.90
19928;DHT22;10126;50.876;4.470;2023-06-22T04:18:28;19.80;99.90
19928;DHT22;10126;50.876;4.470;2023-06-22T04:20:29;20.10;99.90
19928;DHT22;10126;50.876;4.470;2023-06-22T04:22:29;20.50;99.90
19928;DHT22;10126;50.876;4.470;2023-06-22T04:24:30;20.70;99.90
19928;DHT22;10126;50.876;4.470;2023-06-22T04:26:30;20.80;99.90
19928;DHT22;10126;50.876;4.470;2023-06-22T04:28:37;20.80;99.90
19928;DHT22;10126;50.876;4.470;2023-06-22T04:30:38;20.90;99.90
19928;DHT22;10126;50.876;4.470;2023-06-22T04:32:46;20.90;99.90
19928;DHT22;10126;50.876;4.470;2023-06-22T04:34:56;20.80;99.90
19928;DHT22;10126;50.876;4.470;2023-06-22T04:36:59;20.80;99.90
19928;DHT22;10126;50.876;4.470;2023-06-22T04:39:00;20.90;99.90
19928;DHT22;10126;50.876;4.470;2023-06-22T04:41:00;20.90;99.90
19928;DHT22;10126;50.876;4.470;2023-06-22T04:43:03;21.10;99.90
19928;DHT22;10126;50.876;4.470;2023-06-22T04:45:06;21.20;99.90
19928;DHT22;10126;50.876;4.470;2023-06-22T04:47:07;21.20;99.90
19928;DHT22;10126;50.876;4.470;2023-06-22T04:49:09;21.20;99.90
19928;DHT22;10126;50.876;4.470;2023-06-22T04:51:12;21.30;99.90
19928;DHT22;10126;50.876;4.470;2023-06-22T04:53:13;21.30;99.90
19928;DHT22;10126;50.876;4.470;2023-06-22T04:55:17;21.30;99.90
19928;DHT22;10126;50.876;4.470;2023-06-22T04:57:18;21.40;99.90
19928;DHT22;10126;50.876;4.470;2023-06-22T04:59:19;21.50;99.90
19928;DHT22;10126;50.876;4.470;2023-06-22T05:01:19;21.60;99.90
19928;DHT22;10126;50.876;4.470;2023-06-22T05:03:26;21.70;99.90
19928;DHT22;10126;50.876;4.470;2023-06-22T05:05:27;21.50;99.90
19928;DHT22;10126;50.876;4.470;2023-06-22T05:07:27;21.20;99.90
19928;DHT22;10126;50.876;4.470;2023-06-22T05:09:29;21.10;99.90
19928;DHT22;10126;50.876;4.470;2023-06-22T05:11:29;21.20;99.90
19928;DHT22;10126;50.876;4.470;2023-06-22T05:13:30;21.20;99.90
19928;DHT22;10126;50.876;4.470;2023-06-22T05:15:31;21.30;99.90
19928;DHT22;10126;50.876;4.470;2023-06-22T05:17:37;21.40;99.90
19928;DHT22;10126;50.876;4.470;2023-06-22T05:19:43;21.60;99.90
19928;DHT22;10126;50.876;4.470;2023-06-22T05:21:48;21.80;99.90
19928;DHT22;10126;50.876;4.470;2023-06-22T05:23:49;22.00;99.90
19928;DHT22;10126;50.876;4.470;2023-06-22T05:25:51;21.90;99.90
19928;DHT22;10126;50.876;4.470;2023-06-22T05:27:52;21.80;99.90
19928;DHT22;10126;50.876;4.470;2023-06-22T05:29:52;22.00;99.90
19928;DHT22;10126;50.876;4.470;2023-06-22T05:31:53;21.90;99.90
19928;DHT22;10126;50.876;4.470;2023-06-22T05:33:55;21.90;99.90
19928;DHT22;10126;50.876;4.470;2023-06-22T05:35:55;22.00;99.90
19928;DHT22;10126;50.876;4.470;2023-06-22T05:37:56;22.00;99.90
19928;DHT22;10126;50.876;4.470;2023-06-22T05:39:59;21.90;99.90
19928;DHT22;10126;50.876;4.470;2023-06-22T05:42:00;21.90;99.90
19928;DHT22;10126;50.876;4.470;2023-06-22T05:44:01;21.90;99.90
19928;DHT22;10126;50.876;4.470;2023-06-22T05:46:02;21.90;99.90
19928;DHT22;10126;50.876;4.470;2023-06-22T05:48:02;21.90;99.90
19928;DHT22;10126;50.876;4.470;2023-06-22T05:50:04;21.70;99.90
19928;DHT22;10126;50.876;4.470;2023-06-22T05:52:07;21.80;99.90
19928;DHT22;10126;50.876;4.470;2023-06-22T05:54:08;21.70;99.90
19928;DHT22;10126;50.876;4.470;2023-06-22T05:56:09;21.80;99.90
19928;DHT22;10126;50.876;4.470;2023-06-22T05:58:09;21.90;99.90
19928;DHT22;10126;50.876;4.470;2023-06-22T06:00:11;21.90;99.90
19928;DHT22;10126;50.876;4.470;2023-06-22T06:02:12;21.50;99.90
19928;DHT22;10126;50.876;4.470;2023-06-22T06:04:13;21.00;99.90
19928;DHT22;10126;50.876;4.470;2023-06-22T06:06:13;20.80;99.90
19928;DHT22;10126;50.876;4.470;2023-06-22T06:08:14;20.90;99.90
19928;DHT22;10126;50.876;4.470;2023-06-22T06:10:15;20.80;99.90
19928;DHT22;10126;50.876;4.470;2023-06-22T06:12:15;20.80;99.90
19928;DHT22;10126;50.876;4.470;2023-06-22T06:14:16;21.00;99.90
19928;DHT22;10126;50.876;4.470;2023-06-22T06:16:17;20.90;99.90
19928;DHT22;10126;50.876;4.470;2023-06-22T06:18:18;20.70;99.90
19928;DHT22;10126;50.876;4.470;2023-06-22T06:20:23;20.70;99.90
19928;DHT22;10126;50.876;4.470;2023-06-22T06:22:24;20.70;99.90
19928;DHT22;10126;50.876;4.470;2023-06-22T06:24:24;20.90;99.90
19928;DHT22;10126;50.876;4.470;2023-06-22T06:26:25;20.90;99.90
19928;DHT22;10126;50.876;4.470;2023-06-22T06:28:29;21.10;99.90
19928;DHT22;10126;50.876;4.470;2023-06-22T06:30:30;20.90;99.90
19928;DHT22;10126;50.876;4.470;2023-06-22T06:32:31;21.00;99.90
19928;DHT22;10126;50.876;4.470;2023-06-22T06:34:32;21.10;99.90
19928;DHT22;10126;50.876;4.470;2023-06-22T06:36:32;21.20;99.90
19928;DHT22;10126;50.876;4.470;2023-06-22T06:38:33;21.20;99.90
19928;DHT22;10126;50.876;4.470;2023-06-22T06:40:34;21.30;99.90
19928;DHT22;10126;50.876;4.470;2023-06-22T06:42:34;21.30;99.90
19928;DHT22;10126;50.876;4.470;2023-06-22T06:44:38;21.00;99.90
19928;DHT22;10126;50.876;4.470;2023-06-22T06:46:39;21.00;99.90
19928;DHT22;10126;50.876;4.470;2023-06-22T06:48:39;21.00;99.90
19928;DHT22;10126;50.876;4.470;2023-06-22T06:50:40;21.20;99.90
19928;DHT22;10126;50.876;4.470;2023-06-22T06:52:41;21.00;99.90
19928;DHT22;10126;50.876;4.470;2023-06-22T06:54:42;21.00;99.90
19928;DHT22;10126;50.876;4.470;2023-06-22T06:56:45;21.00;99.90
19928;DHT22;10126;50.876;4.470;2023-06-22T06:58:50;21.00;99.90
19928;DHT22;10126;50.876;4.470;2023-06-22T07:00:51;21.00;99.90
19928;DHT22;10126;50.876;4.470;2023-06-22T07:02:52;20.90;99.90
19928;DHT22;10126;50.876;4.470;2023-06-22T07:04:53;21.00;99.90
19928;DHT22;10126;50.876;4.470;2023-06-22T07:06:55;21.20;99.90
19928;DHT22;10126;50.876;4.470;2023-06-22T07:08:56;21.20;99.90
19928;DHT22;10126;50.876;4.470;2023-06-22T07:10:57;21.30;99.90
19928;DHT22;10126;50.876;4.470;2023-06-22T07:12:57;21.40;99.90
19928;DHT22;10126;50.876;4.470;2023-06-22T07:15:06;21.80;99.90
19928;DHT22;10126;50.876;4.470;2023-06-22T07:17:10;21.80;99.90
19928;DHT22;10126;50.876;4.470;2023-06-22T07:19:13;22.00;99.90
19928;DHT22;10126;50.876;4.470;2023-06-22T07:21:14;21.70;99.90
19928;DHT22;10126;50.876;4.470;2023-06-22T07:23:15;21.40;99.90
19928;DHT22;10126;50.876;4.470;2023-06-22T07:25:16;21.40;99.90
19928;DHT22;10126;50.876;4.470;2023-06-22T07:27:17;21.50;99.90
19928;DHT22;10126;50.876;4.470;2023-06-22T07:29:20;21.50;99.90
19928;DHT22;10126;50.876;4.470;2023-06-22T07:31:21;21.50;99.90
19928;DHT22;10126;50.876;4.470;2023-06-22T07:33:22;21.30;99.90
19928;DHT22;10126;50.876;4.470;2023-06-22T07:35:22;21.50;99.90
19928;DHT22;10126;50.876;4.470;2023-06-22T07:37:23;21.50;99.90
19928;DHT22;10126;50.876;4.470;2023-06-22T07:39:24;21.80;99.90
19928;DHT22;10126;50.876;4.470;2023-06-22T07:41:26;21.60;99.90
19928;DHT22;10126;50.876;4.470;2023-06-22T07:43:27;21.30;99.90
19928;DHT22;10126;50.876;4.470;2023-06-22T07:45:30;21.10;99.90
19928;DHT22;10126;50.876;4.470;2023-06-22T07:47:34;21.00;99.90
19928;DHT22;10126;50.876;4.470;2023-06-22T07:49:35;21.00;99.90
19928;DHT22;10126;50.876;4.470;2023-06-22T07:51:36;21.10;99.90
19928;DHT22;10126;50.876;4.470;2023-06-22T07:53:36;21.00;99.90
19928;DHT22;10126;50.876;4.470;2023-06-22T07:55:37;20.90;99.90
19928;DHT22;10126;50.876;4.470;2023-06-22T07:57:38;20.90;99.90
19928;DHT22;10126;50.876;4.470;2023-06-22T07:59:38;20.80;99.90
19928;DHT22;10126;50.876;4.470;2023-06-22T08:01:39;20.90;99.90
19928;DHT22;10126;50.876;4.470;2023-06-22T08:03:40;20.90;99.90
19928;DHT22;10126;50.876;4.470;2023-06-22T08:05:40;21.00;99.90
19928;DHT22;10126;50.876;4.470;2023-06-22T08:07:41;21.10;99.90
19928;DHT22;10126;50.876;4.470;2023-06-22T08:09:46;21.10;99.90
19928;DHT22;10126;50.876;4.470;2023-06-22T08:11:48;21.10;99.90
19928;DHT22;10126;50.876;4.470;2023-06-22T08:13:49;21.10;99.90
19928;DHT22;10126;50.876;4.470;2023-06-22T08:15:50;20.90;99.90
19928;DHT22;10126;50.876;4.470;2023-06-22T08:17:50;20.80;99.90
19928;DHT22;10126;50.876;4.470;2023-06-22T08:19:52;20.70;99.90
19928;DHT22;10126;50.876;4.470;2023-06-22T08:21:53;20.60;99.90
19928;DHT22;10126;50.876;4.470;2023-06-22T08:23:53;20.60;99.90
19928;DHT22;10126;50.876;4.470;2023-06-22T08:25:54;20.50;99.90
19928;DHT22;10126;50.876;4.470;2023-06-22T08:27:55;20.50;99.90
19928;DHT22;10126;50.876;4.470;2023-06-22T08:29:55;20.40;99.90
19928;DHT22;10126;50.876;4.470;2023-06-22T08:31:59;20.50;99.90
19928;DHT22;10126;50.876;4.470;2023-06-22T08:33:59;20.40;99.90
19928;DHT22;10126;50.876;4.470;2023-06-22T08:36:00;20.50;99.90
19928;DHT22;10126;50.876;4.470;2023-06-22T08:38:01;20.50;99.90
19928;DHT22;10126;50.876;4.470;2023-06-22T08:40:04;20.40;99.90
19928;DHT22;10126;50.876;4.470;2023-06-22T08:42:09;20.50;99.90
19928;DHT22;10126;50.876;4.470;2023-06-22T08:44:09;20.50;99.90
19928;DHT22;10126;50.876;4.470;2023-06-22T08:46:10;20.70;99.90
19928;DHT22;10126;50.876;4.470;2023-06-22T08:48:11;20.60;99.90
19928;DHT22;10126;50.876;4.470;2023-06-22T08:50:12;20.60;99.90
19928;DHT22;10126;50.876;4.470;2023-06-22T08:52:13;20.50;99.90
19928;DHT22;10126;50.876;4.470;2023-06-22T08:54:14;20.60;99.90
19928;DHT22;10126;50.876;4.470;2023-06-22T08:56:14;20.70;99.90
19928;DHT22;10126;50.876;4.470;2023-06-22T08:58:15;20.70;99.90
19928;DHT22;10126;50.876;4.470;2023-06-22T09:00:16;20.60;99.90
19928;DHT22;10126;50.876;4.470;2023-06-22T09:02:17;20.60;99.90
19928;DHT22;10126;50.876;4.470;2023-06-22T09:04:18;20.60;99.90
19928;DHT22;10126;50.876;4.470;2023-06-22T09:06:19;20.60;99.90
19928;DHT22;10126;50.876;4.470;2023-06-22T09:08:19;20.60;99.90
19928;DHT22;10126;50.876;4.470;2023-06-22T09:10:20;20.60;99.90
19928;DHT22;10126;50.876;4.470;2023-06-22T09:12:21;20.70;99.90
19928;DHT22;10126;50.876;4.470;2023-06-22T09:14:26;20.80;99.90
19928;DHT22;10126;50.876;4.470;2023-06-22T09:16:26;20.90;99.90
19928;DHT22;10126;50.876;4.470;2023-06-22T09:18:27;21.10;99.90
19928;DHT22;10126;50.876;4.470;2023-06-22T09:20:28;21.20;99.90
19928;DHT22;10126;50.876;4.470;2023-06-22T09:22:28;21.20;99.90
19928;DHT22;10126;50.876;4.470;2023-06-22T09:24:29;21.20;99.90
19928;DHT22;10126;50.876;4.470;2023-06-22T09:26:30;20.80;99.90
19928;DHT22;10126;50.876;4.470;2023-06-22T09:28:31;20.70;99.90
19928;DHT22;10126;50.876;4.470;2023-06-22T09:30:31;20.80;99.90
19928;DHT22;10126;50.876;4.470;2023-06-22T09:32:32;21.00;99.90
19928;DHT22;10126;50.876;4.470;2023-06-22T09:34:32;21.00;99.90
19928;DHT22;10126;50.876;4.470;2023-06-22T09:36:33;21.00;99.90
19928;DHT22;10126;50.876;4.470;2023-06-22T09:38:40;21.00;99.90
19928;DHT22;10126;50.876;4.470;2023-06-22T09:40:40;21.00;99.90
19928;DHT22;10126;50.876;4.470;2023-06-22T09:42:42;21.10;99.90
19928;DHT22;10126;50.876;4.470;2023-06-22T09:44:42;21.10;99.90
19928;DHT22;10126;50.876;4.470;2023-06-22T09:46:43;21.10;99.90
19928;DHT22;10126;50.876;4.470;2023-06-22T09:48:44;21.10;99.90
19928;DHT22;10126;50.876;4.470;2023-06-22T09:50:45;21.00;99.90
19928;DHT22;10126;50.876;4.470;2023-06-22T09:52:45;20.80;99.90
19928;DHT22;10126;50.876;4.470;2023-06-22T09:54:51;20.50;99.90
19928;DHT22;10126;50.876;4.470;2023-06-22T09:56:51;20.40;99.90
19928;DHT22;10126;50.876;4.470;2023-06-22T09:58:52;20.00;99.90
19928;DHT22;10126;50.876;4.470;2023-06-22T10:00:53;19.60;99.90
19928;DHT22;10126;50.876;4.470;2023-06-22T10:02:54;19.20;99.90
19928;DHT22;10126;50.876;4.470;2023-06-22T10:04:56;19.10;99.90
19928;DHT22;10126;50.876;4.470;2023-06-22T10:06:56;19.20;99.90
19928;DHT22;10126;50.876;4.470;2023-06-22T10:08:57;19.30;99.90
19928;DHT22;10126;50.876;4.470;2023-06-22T10:10:58;19.20;99.90
19928;DHT22;10126;50.876;4.470;2023-06-22T10:13:07;19.00;99.90
19928;DHT22;10126;50.876;4.470;2023-06-22T10:15:10;18.60;99.90
19928;DHT22;10126;50.876;4.470;2023-06-22T10:17:11;18.30;99.90
19928;DHT22;10126;50.876;4.470;2023-06-22T10:19:11;18.00;99.90
19928;DHT22;10126;50.876;4.470;2023-06-22T10:21:12;17.80;99.90
19928;DHT22;10126;50.876;4.470;2023-06-22T10:23:13;17.80;99.90
19928;DHT22;10126;50.876;4.470;2023-06-22T10:25:13;17.80;99.90
19928;DHT22;10126;50.876;4.470;2023-06-22T10:27:14;17.80;99.90
19928;DHT22;10126;50.876;4.470;2023-06-22T10:29:15;17.70;99.90
19928;DHT22;10126;50.876;4.470;2023-06-22T10:31:16;17.80;99.90
19928;DHT22;10126;50.876;4.470;2023-06-22T10:33:17;17.80;99.90
19928;DHT22;10126;50.876;4.470;2023-06-22T10:35:18;17.70;99.90
19928;DHT22;10126;50.876;4.470;2023-06-22T10:37:19;17.80;99.90
19928;DHT22;10126;50.876;4.470;2023-06-22T10:39:19;17.80;99.90
19928;DHT22;10126;50.876;4.470;2023-06-22T10:41:20;17.70;99.90
19928;DHT22;10126;50.876;4.470;2023-06-22T10:43:21;17.70;99.90
19928;DHT22;10126;50.876;4.470;2023-06-22T10:45:22;17.70;99.90
19928;DHT22;10126;50.876;4.470;2023-06-22T10:47:22;17.80;99.90
19928;DHT22;10126;50.876;4.470;2023-06-22T10:49:23;17.90;99.90
19928;DHT22;10126;50.876;4.470;2023-06-22T10:51:24;17.80;99.90
19928;DHT22;10126;50.876;4.470;2023-06-22T10:53:25;17.80;99.90
19928;DHT22;10126;50.876;4.470;2023-06-22T10:55:26;17.90;99.90
19928;DHT22;10126;50.876;4.470;2023-06-22T10:57:27;18.00;99.90
19928;DHT22;10126;50.876;4.470;2023-06-22T10:59:27;18.10;99.90
19928;DHT22;10126;50.876;4.470;2023-06-22T11:01:29;18.00;99.90
19928;DHT22;10126;50.876;4.470;2023-06-22T11:03:31;17.90;99.90
19928;DHT22;10126;50.876;4.470;2023-06-22T11:05:32;17.80;99.90
19928;DHT22;10126;50.876;4.470;2023-06-22T11:07:33;17.70;99.90
19928;DHT22;10126;50.876;4.470;2023-06-22T11:09:34;17.80;99.90
19928;DHT22;10126;50.876;4.470;2023-06-22T11:11:34;17.80;99.90
19928;DHT22;10126;50.876;4.470;2023-06-22T11:13:35;17.80;99.90
19928;DHT22;10126;50.876;4.470;2023-06-22T11:15:36;17.90;99.90
19928;DHT22;10126;50.876;4.470;2023-06-22T11:17:37;18.00;99.90
19928;DHT22;10126;50.876;4.470;2023-06-22T11:19:38;18.00;99.90
19928;DHT22;10126;50.876;4.470;2023-06-22T11:21:38;18.10;99.90
19928;DHT22;10126;50.876;4.470;2023-06-22T11:23:39;18.20;99.90
19928;DHT22;10126;50.876;4.470;2023-06-22T11:25:40;18.20;99.90
19928;DHT22;10126;50.876;4.470;2023-06-22T11:27:42;18.10;99.90
19928;DHT22;10126;50.876;4.470;2023-06-22T11:29:43;18.20;99.90
19928;DHT22;10126;50.876;4.470;2023-06-22T11:31:44;18.20;99.90
19928;DHT22;10126;50.876;4.470;2023-06-22T11:33:44;18.30;99.90
19928;DHT22;10126;50.876;4.470;2023-06-22T11:35:46;18.30;99.90
19928;DHT22;10126;50.876;4.470;2023-06-22T11:37:46;18.30;99.90
19928;DHT22;10126;50.876;4.470;2023-06-22T11:39:47;18.20;99.90
19928;DHT22;10126;50.876;4.470;2023-06-22T11:41:48;18.20;99.90
19928;DHT22;10126;50.876;4.470;2023-06-22T11:43:49;18.20;99.90
19928;DHT22;10126;50.876;4.470;2023-06-22T11:45:49;18.10;99.90
19928;DHT22;10126;50.876;4.470;2023-06-22T11:47:51;18.10;99.90
19928;DHT22;10126;50.876;4.470;2023-06-22T11:49:51;18.00;99.90
19928;DHT22;10126;50.876;4.470;2023-06-22T11:51:52;18.00;99.90
19928;DHT22;10126;50.876;4.470;2023-06-22T11:53:54;18.00;99.90
19928;DHT22;10126;50.876;4.470;2023-06-22T11:55:54;18.00;99.90
19928;DHT22;10126;50.876;4.470;2023-06-22T11:57:56;18.00;99.90
19928;DHT22;10126;50.876;4.470;2023-06-22T12:00:00;18.00;99.90
19928;DHT22;10126;50.876;4.470;2023-06-22T12:02:00;18.00;99.90
19928;DHT22;10126;50.876;4.470;2023-06-22T12:04:01;18.00;99.90
19928;DHT22;10126;50.876;4.470;2023-06-22T12:06:02;17.90;99.90
19928;DHT22;10126;50.876;4.470;2023-06-22T12:08:02;18.00;99.90
19928;DHT22;10126;50.876;4.470;2023-06-22T12:10:03;18.00;99.90
19928;DHT22;10126;50.876;4.470;2023-06-22T12:12:04;18.00;99.90
19928;DHT22;10126;50.876;4.470;2023-06-22T12:14:05;18.00;99.90
19928;DHT22;10126;50.876;4.470;2023-06-22T12:16:06;17.90;99.90
19928;DHT22;10126;50.876;4.470;2023-06-22T12:18:06;17.90;99.90
19928;DHT22;10126;50.876;4.470;2023-06-22T12:20:07;18.00;99.90
19928;DHT22;10126;50.876;4.470;2023-06-22T12:22:08;18.00;99.90
19928;DHT22;10126;50.876;4.470;2023-06-22T12:24:09;17.90;99.90
19928;DHT22;10126;50.876;4.470;2023-06-22T12:26:09;17.90;99.90
19928;DHT22;10126;50.876;4.470;2023-06-22T12:28:10;17.90;99.90
19928;DHT22;10126;50.876;4.470;2023-06-22T12:30:11;17.90;99.90
19928;DHT22;10126;50.876;4.470;2023-06-22T12:32:11;18.10;99.90
19928;DHT22;10126;50.876;4.470;2023-06-22T12:34:15;18.00;99.90
19928;DHT22;10126;50.876;4.470;2023-06-22T12:36:15;18.00;99.90
19928;DHT22;10126;50.876;4.470;2023-06-22T12:38:16;18.00;99.90
19928;DHT22;10126;50.876;4.470;2023-06-22T12:40:17;18.00;99.90
19928;DHT22;10126;50.876;4.470;2023-06-22T12:42:18;17.90;99.90
19928;DHT22;10126;50.876;4.470;2023-06-22T12:44:18;18.00;99.90
19928;DHT22;10126;50.876;4.470;2023-06-22T12:46:19;17.90;99.90
19928;DHT22;10126;50.876;4.470;2023-06-22T12:48:19;17.90;99.90
19928;DHT22;10126;50.876;4.470;2023-06-22T12:50:20;17.90;99.90
19928;DHT22;10126;50.876;4.470;2023-06-22T12:52:21;17.90;99.90